Latest Weather Observations for Gelantipy

IDV60801

Issued at 3:02 pm EDT Thursday 19 January 2017 (issued every 30 minutes, with the page automatically refreshed every 10 minutes)

About weather observations | Map of weather stations | Latest weather observations for VIC | Other Formats
Station Details ID: 084142 Name: GELANTIPY Lat: -37.22 Lon: 148.26 Height: 755.0 m
Data from the previous 72 hours. | See also: Recent months at Gelantipy
Date/Time
EDT
Temp
°C
App
Temp
°C
Dew
Point
°C
Rel
Hum
%
Delta-T
°C
Wind Press
QNH
hPa
Press
MSL
hPa
Rain since
9am
mm
Dir  Spd
km/h
Gust
km/h
Spd
kts
Gust
kts
19/03:00pm 24.1 22.4 11.1 44 7.5 SSE 11 13 6 7 1010.7 1007.7 0.2
19/02:30pm 23.8 22.2 10.1 42 7.8 SE 9 17 5 9 1011.1 1008.1 0.2
19/02:00pm 23.5 21.9 10.2 43 7.6 WNW 9 15 5 8 1011.6 1008.6 0.2
19/01:30pm 23.5 22.4 10.6 44 7.4 ESE 7 15 4 8 1012.1 1009.1 0.2
19/01:00pm 22.3 20.6 9.8 45 7.0 ENE 9 13 5 7 1012.4 1009.4 0.2
19/12:30pm 21.1 18.6 9.7 48 6.4 E 13 19 7 10 1012.9 1009.9 0.2
19/12:00pm 20.3 17.7 9.5 50 6.0 ENE 13 20 7 11 1013.3 1010.3 0.2
19/11:30am 19.2 16.2 9.1 52 5.5 ENE 15 24 8 13 1013.5 1010.5 0.2
19/11:00am 17.7 14.6 8.8 56 4.8 NE 15 24 8 13 1013.8 1010.9 0.2
19/10:30am 16.9 13.3 8.3 57 4.6 NE 17 24 9 13 1014.0 1011.1 0.2
19/10:00am 15.3 11.1 8.3 63 3.7 NE 20 30 11 16 1014.3 1011.3 0.0
19/09:30am 14.2 9.8 7.5 64 3.4 NE 20 30 11 16 1014.4 1011.4 0.0
19/09:00am 12.9 8.5 7.6 70 2.7 NE 20 30 11 16 1014.9 1011.9 0.0
19/08:30am 11.9 7.5 7.6 75 2.2 NNE 20 26 11 14 1015.1 1012.2 0.0
19/08:00am 10.7 7.2 7.2 79 1.7 NE 15 24 8 13 1015.2 1012.3 0.0
19/07:30am 9.8 6.6 6.7 81 1.5 NE 13 19 7 10 1015.2 1012.3 0.0
19/07:00am 9.3 7.4 7.4 88 0.9 NE 7 11 4 6 1015.3 1012.4 0.0
19/06:30am 8.9 6.9 7.2 89 0.8 NE 7 9 4 5 1015.1 1012.2 0.0
19/06:00am 8.4 6.5 6.9 90 0.7 NE 6 9 3 5 1015.0 1012.1 0.0
19/05:30am 7.6 5.4 6.4 92 0.6 NE 7 7 4 4 1014.9 1011.9 0.0
19/05:00am 7.0 5.9 5.0 87 0.9 CALM 0 0 0 0 1014.8 1011.8 0.0
19/04:30am 8.2 7.3 6.0 86 1.0 CALM 0 0 0 0 1014.7 1011.7 0.0
19/04:00am 9.0 7.6 5.7 80 1.6 E 2 6 1 3 1014.9 1011.9 0.0
19/03:30am 9.2 7.2 6.1 81 1.5 SE 6 7 3 4 1015.2 1012.3 0.0
19/03:00am 9.5 7.9 6.2 80 1.6 ENE 4 9 2 5 1015.8 1012.8 0.0
19/02:30am 9.4 7.4 6.3 81 1.5 E 6 9 3 5 1016.3 1013.4 0.0
19/02:00am 9.4 8.3 7.0 85 1.2 ESE 2 7 1 4 1016.6 1013.7 0.0
19/01:30am 9.4 8.5 7.8 90 0.8 SE 2 6 1 3 1016.8 1013.9 0.0
19/01:00am 9.4 7.8 8.0 91 0.7 S 6 7 3 4 1016.8 1013.9 0.0
19/12:30am 9.4 7.7 8.2 92 0.6 SSE 7 13 4 7 1017.1 1014.1 0.0
19/12:00am 9.4 7.7 8.3 93 0.6 S 7 9 4 5 1017.5 1014.6 0.0
 
Date/Time
EDT
Temp
°C
App
Temp
°C
Dew
Point
°C
Rel
Hum
%
Delta-T
°C
Wind Press
QNH
hPa
Press
MSL
hPa
Rain since
9am
mm
Dir  Spd
km/h
Gust
km/h
Spd
kts
Gust
kts
18/11:30pm 9.0 8.2 8.1 94 0.5 SW 2 7 1 4 1017.7 1014.8 0.0
18/11:00pm 8.4 6.4 7.3 93 0.5 WSW 7 9 4 5 1017.6 1014.7 0.0
18/10:30pm 8.8 7.1 7.4 91 0.7 S 6 7 3 4 1017.6 1014.7 0.0
18/10:00pm 9.1 7.2 7.4 89 0.8 SW 7 9 4 5 1017.5 1014.6 0.0
18/09:30pm 9.7 7.8 7.6 87 1.0 SSW 7 11 4 6 1017.0 1014.0 0.0
18/09:00pm 10.6 8.5 8.2 85 1.2 SSW 9 15 5 8 1016.6 1013.7 0.0
18/08:30pm 11.7 9.3 8.6 81 1.6 S 11 17 6 9 1016.4 1013.5 0.0
18/08:00pm 12.7 10.4 9.0 78 1.9 S 11 19 6 10 1015.8 1012.8 0.0
18/07:30pm 13.7 11.5 9.4 75 2.3 SSW 11 17 6 9 1015.3 1012.4 0.0
18/07:00pm 13.8 11.5 9.0 73 2.5 SSW 11 17 6 9 1014.9 1011.9 0.0
18/06:30pm 13.9 11.7 9.5 75 2.3 S 11 20 6 11 1014.7 1011.7 0.0
18/06:00pm 14.2 10.9 9.6 74 2.5 S 17 28 9 15 1014.5 1011.5 0.0
18/05:30pm 14.4 11.6 10.0 75 2.4 S 15 28 8 15 1014.4 1011.4 0.0
18/05:00pm 14.9 12.0 9.5 70 2.9 S 15 26 8 14 1014.2 1011.2 0.0
18/04:30pm 15.5 12.8 10.3 71 2.8 SW 15 24 8 13 1014.2 1011.2 0.0
18/04:00pm 14.2 12.0 10.8 80 1.9 SSW 13 22 7 12 1014.4 1011.4 0.0
18/03:30pm 12.2 10.0 10.8 91 0.8 SSW 13 20 7 11 1014.4 1011.4 0.0
18/03:00pm 12.8 11.1 12.3 97 0.3 SSW 13 19 7 10 1014.0 1011.1 0.0
18/02:30pm 11.8 9.9 11.8 100 0.0 S 13 20 7 11 1014.0 1011.1 0.0
18/02:00pm 11.7 9.8 11.7 100 0.0 SSW 13 20 7 11 1014.0 1011.1 0.0
18/01:30pm 11.9 10.0 11.9 100 0.0 SW 13 20 7 11 1013.8 1010.9 0.0
18/01:00pm 12.1 10.2 11.9 99 0.1 SSW 13 22 7 12 1013.5 1010.5 0.0
18/12:30pm 12.0 10.1 11.8 99 0.1 S 13 20 7 11 1013.4 1010.4 0.0
18/12:00pm 12.4 10.2 12.1 98 0.2 SSW 15 22 8 12 1013.3 1010.3 0.0
18/11:30am 12.5 10.7 12.0 97 0.3 S 13 22 7 12 1012.9 1009.9 0.0
18/11:00am 13.4 11.7 12.3 93 0.6 S 13 26 7 14 1012.5 1009.5 0.0
18/10:30am 15.2 13.6 12.9 86 1.3 S 13 20 7 11 1012.4 1009.4 0.0
18/10:00am 15.6 13.9 12.5 82 1.8 S 13 22 7 12 1012.0 1009.0 0.0
18/09:30am 16.0 13.7 11.8 76 2.4 S 15 26 8 14 1011.8 1008.8 0.0
18/09:00am 16.8 14.5 10.4 66 3.5 S 13 20 7 11 1011.5 1008.5 0.0
18/08:30am 17.4 16.5 10.5 64 3.8 SSW 6 13 3 7 1010.6 1007.6 0.0
18/08:00am 17.6 15.6 10.2 62 4.1 NNE 11 20 6 11 1009.0 1005.9 0.0
18/07:30am 17.0 13.6 10.4 65 3.6 NNE 19 24 10 13 1008.3 1005.3 0.0
18/07:00am 14.8 13.3 10.6 76 2.3 N 9 15 5 8 1009.1 1006.1 0.0
18/06:30am 13.7 12.9 9.6 76 2.2 NW 4 7 2 4 1009.6 1006.6 0.0
18/06:00am 14.1 11.9 9.3 73 2.6 W 11 13 6 7 1010.0 1006.9 0.0
18/05:30am 13.9 13.0 9.3 74 2.4 WSW 4 9 2 5 1010.2 1007.1 0.0
18/05:00am 13.9 13.3 8.9 72 2.6 SW 2 9 1 5 1010.4 1007.4 0.0
18/04:30am 14.3 14.1 8.9 70 2.9 CALM 0 6 0 3 1010.2 1007.1 0.0
18/04:00am 15.2 13.9 9.1 67 3.3 WSW 6 7 3 4 1010.1 1007.0 0.0
18/03:30am 16.0 14.6 9.0 63 3.7 SW 6 9 3 5 1010.1 1007.0 0.0
18/03:00am 16.9 14.4 8.1 56 4.7 SW 11 17 6 9 1010.7 1007.7 0.0
18/02:30am 17.4 15.4 7.2 51 5.3 SSW 7 13 4 7 1010.7 1007.7 0.0
18/02:00am 18.3 16.4 7.4 49 5.7 SSW 7 11 4 6 1010.8 1007.8 0.0
18/01:30am 18.3 16.2 8.3 52 5.3 SW 9 20 5 11 1010.8 1007.8 0.0
18/01:00am 19.1 16.7 8.7 51 5.6 SW 11 17 6 9 1010.4 1007.4 0.0
18/12:30am 20.5 16.1 7.5 43 6.9 NNE 20 26 11 14 1008.8 1005.7 0.0
18/12:00am 20.1 16.1 8.1 46 6.5 N 19 24 10 13 1009.3 1006.3 0.0
 
Date/Time
EDT
Temp
°C
App
Temp
°C
Dew
Point
°C
Rel
Hum
%
Delta-T
°C
Wind Press
QNH
hPa
Press
MSL
hPa
Rain since
9am
mm
Dir  Spd
km/h
Gust
km/h
Spd
kts
Gust
kts
17/11:30pm 18.0 15.9 8.3 53 5.2 N 9 15 5 8 1010.0 1006.9 0.0
17/11:00pm 18.0 15.3 8.8 55 5.0 N 13 15 7 8 1010.6 1007.6 0.0
17/10:30pm 17.7 16.0 8.3 54 5.0 NE 7 11 4 6 1010.9 1007.9 0.0
17/10:00pm 19.1 18.7 8.4 50 5.8 CALM 0 0 0 0 1010.9 1007.9 0.0
17/09:30pm 20.0 19.6 8.4 47 6.3 CALM 0 0 0 0 1010.7 1007.7 0.0
17/09:00pm 21.6 20.9 7.1 39 7.7 CALM 0 0 0 0 1010.6 1007.6 0.0
17/08:30pm 23.1 22.1 7.2 36 8.6 SE 2 6 1 3 1010.7 1007.7 0.0
17/08:00pm 24.1 22.6 6.8 33 9.3 S 4 7 2 4 1010.9 1007.9 0.0
17/07:30pm 25.4 21.3 6.1 29 10.3 SE 17 24 9 13 1010.9 1007.9 0.0
17/07:00pm 27.5 24.4 7.4 28 11.1 SE 13 19 7 10 1010.9 1007.9 0.0
17/06:30pm 29.5 25.8 6.2 23 12.8 S 15 22 8 12 1010.9 1007.9 0.0
17/06:00pm 32.2 27.2 1.3 14 15.9 WNW 17 28 9 15 1010.9 1007.9 0.0
17/05:30pm 32.9 27.8 0.9 13 16.4 W 17 30 9 16 1010.9 1007.9 0.0
17/05:00pm 33.0 27.1 2.0 14 16.2 NW 22 32 12 17 1011.0 1008.0 0.0
17/04:30pm 31.2 25.8 1.5 15 15.2 NW 19 30 10 16 1011.4 1008.3 0.0
17/04:00pm 32.6 26.9 2.6 15 15.8 WNW 22 35 12 19 1011.7 1008.7 0.0
17/03:30pm 32.9 27.0 1.9 14 16.1 NW 22 44 12 24 1011.8 1008.8 0.0
17/03:00pm 31.3 25.5 2.5 16 15.0 WNW 22 30 12 16 1012.1 1009.1 0.0
17/02:30pm 32.7 25.1 2.7 15 15.8 WNW 32 43 17 23 1012.3 1009.3 0.0
17/02:00pm 31.9 23.4 1.1 14 15.7 WNW 35 54 19 29 1012.4 1009.4 0.0
17/01:35pm 32.3 25.2 1.4 14 15.9 W 28 46 15 25 1012.6 1009.7 0.0
17/01:30pm 32.3 26.0 1.4 14 15.9 W 24 43 13 23 1012.6 1009.7 0.0
17/01:00pm 31.4 22.5 0.7 14 15.5 W 37 54 20 29 1012.8 1009.8 0.0
17/12:59pm 31.5 22.5 -0.2 13 15.8 WNW 37 54 20 29 1012.9 1009.9 0.0
17/12:47pm 31.8 24.6 1.0 14 15.7 WNW 28 48 15 26 1013.0 1010.0 0.0
17/12:30pm 30.5 22.6 1.0 15 14.9 WNW 32 46 17 25 1012.9 1009.9 0.0
17/12:00pm 28.5 21.0 1.1 17 13.7 W 30 50 16 27 1013.3 1010.3 0.0
17/11:44am 28.3 21.3 1.7 18 13.4 W 28 48 15 26 1013.7 1010.7 0.0
17/11:30am 28.5 22.3 1.9 18 13.5 W 24 50 13 27 1013.7 1010.7 0.0
17/11:24am 28.2 20.9 0.0 16 13.8 WNW 28 50 15 27 1013.7 1010.7 0.0
17/11:22am 28.2 21.4 0.9 17 13.6 W 26 46 14 25 1013.7 1010.7 0.0
17/11:00am 28.3 24.1 1.7 18 13.4 W 13 28 7 15 1013.8 1010.9 0.0
17/10:30am 28.0 22.4 1.5 18 13.3 WNW 20 35 11 19 1013.9 1011.0 0.0
17/10:00am 28.5 24.2 1.1 17 13.7 WNW 13 19 7 10 1013.7 1010.7 0.0
17/09:30am 27.7 23.8 1.2 18 13.2 NW 11 17 6 9 1013.6 1010.6 0.0
17/09:00am 28.3 22.8 1.7 18 13.4 NW 20 32 11 17 1013.6 1010.6 0.0
17/08:30am 28.0 23.0 1.5 18 13.3 WNW 17 32 9 17 1013.4 1010.4 0.0
17/08:00am 25.9 21.9 2.6 22 11.8 WNW 13 20 7 11 1013.2 1010.2 0.0
17/07:30am 24.6 19.8 0.2 20 11.7 WNW 15 24 8 13 1012.8 1009.8 0.0
17/07:00am 25.5 19.7 0.2 19 12.2 NW 20 39 11 21 1012.0 1009.0 0.0
17/06:30am 24.3 19.2 0.6 21 11.4 NNW 17 32 9 17 1011.8 1008.8 0.0
17/06:00am 23.9 19.3 1.5 23 10.9 NW 15 28 8 15 1011.8 1008.8 0.0
17/05:30am 23.8 19.0 2.6 25 10.5 NNW 17 39 9 21 1011.6 1008.6 0.0
17/05:00am 19.8 14.7 7.5 45 6.5 N 24 32 13 17 1011.7 1008.7 0.0
17/04:30am 18.9 15.3 8.3 50 5.7 N 17 24 9 13 1012.1 1009.1 0.0
17/04:00am 19.5 15.9 8.5 49 5.9 N 17 22 9 12 1012.3 1009.3 0.0
17/03:30am 17.3 14.5 8.7 57 4.6 N 13 15 7 8 1012.3 1009.3 0.0
17/03:00am 18.0 14.5 8.6 54 5.0 N 17 20 9 11 1012.5 1009.5 0.0
17/02:30am 18.5 14.6 8.7 53 5.3 N 19 24 10 13 1012.8 1009.8 0.0
17/02:00am 18.1 13.5 9.5 57 4.7 N 24 28 13 15 1013.0 1010.0 0.0
17/01:30am 17.4 13.3 7.7 53 5.1 N 19 22 10 12 1013.5 1010.5 0.0
17/01:00am 16.6 13.1 8.8 60 4.2 NNE 17 19 9 10 1014.0 1011.1 0.0
17/12:30am 16.2 12.7 7.4 56 4.6 NNE 15 19 8 10 1014.2 1011.2 0.0
17/12:00am 17.3 14.9 10.2 63 3.9 NNE 13 17 7 9 1014.5 1011.5 0.0
 
Date/Time
EDT
Temp
°C
App
Temp
°C
Dew
Point
°C
Rel
Hum
%
Delta-T
°C
Wind Press
QNH
hPa
Press
MSL
hPa
Rain since
9am
mm
Dir  Spd
km/h
Gust
km/h
Spd
kts
Gust
kts
16/11:30pm 15.9 14.5 12.1 78 2.2 N 11 15 6 8 1014.7 1011.7 0.0
16/11:00pm 15.7 15.2 12.1 79 2.0 NNE 6 7 3 4 1015.3 1012.4 0.0
16/10:30pm 16.0 15.0 12.2 78 2.2 NNE 9 13 5 7 1015.6 1012.6 0.0
16/10:00pm 17.0 17.3 12.3 74 2.7 NNE 2 7 1 4 1015.9 1012.9 0.0
16/09:30pm 18.2 19.0 12.6 70 3.2 CALM 0 2 0 1 1015.7 1012.7 0.0
16/09:00pm 19.2 18.5 12.0 63 4.1 WNW 7 9 4 5 1015.4 1012.5 0.0
16/08:30pm 20.5 21.1 12.0 58 4.9 CALM 0 4 0 2 1015.3 1012.4 0.0
16/08:00pm 23.3 23.2 13.8 55 5.7 S 7 11 4 6 1015.3 1012.4 0.0
16/07:30pm 24.8 25.0 14.3 52 6.4 SE 6 7 3 4 1015.1 1012.2 0.0
16/07:00pm 25.3 25.1 14.7 51 6.5 SSW 9 13 5 7 1015.0 1012.1 0.0
16/06:30pm 25.7 24.9 15.1 52 6.6 S 13 19 7 10 1014.8 1011.8 0.0
16/06:00pm 27.0 26.6 15.1 48 7.4 S 11 17 6 9 1014.5 1011.5 0.0
16/05:30pm 27.2 26.1 14.2 44 8.0 S 13 22 7 12 1014.4 1011.4 0.0
16/05:00pm 29.0 28.3 14.4 41 9.1 SSW 11 17 6 9 1014.3 1011.3 0.0
16/04:30pm 29.5 28.4 10.6 31 11.1 WNW 7 13 4 7 1014.0 1011.1 0.0
16/04:00pm 28.5 27.3 11.6 35 10.1 SSW 9 17 5 9 1014.4 1011.4 0.0
16/03:30pm 28.0 26.0 12.8 39 9.2 SE 15 22 8 12 1014.6 1011.6 0.0

Other Formats:

Comma delimited format used in spreadsheet applications
http://www.bom.gov.au/fwo/IDV60801/IDV60801.94913.axf

JavaScript Object Notation format (JSON) in row-major order
http://www.bom.gov.au/fwo/IDV60801/IDV60801.94913.json